Time;durP1;ratioP1;P1;durP2;ratioP2;P2;SDS_P1;SDS_P2;PMS_P1;PMS_P2;Temp;Humidity;BMP_temperature;BMP_pressure;BME280_temperature;BME280_humidity;BME280_pressure;Samples;Min_cycle;Max_cycle;Signal;HPM_P1;HPM_P2
2023/09/28 00:02:45;;;;;;;10.32;9.23;;;;;;;;;;5009778;28;20037;-67
2023/09/28 00:05:12;;;;;;;10.70;9.15;;;;;;;;;;5008320;28;20042;-67
2023/09/28 00:07:38;;;;;;;10.45;9.27;;;;;;;;;;5011524;28;20042;-67
2023/09/28 00:10:05;;;;;;;10.13;8.80;;;;;;;;;;5015258;28;20052;-67
2023/09/28 00:12:31;;;;;;;12.25;8.82;;;;;;;;;;5013646;28;20042;-67
2023/09/28 00:14:58;;;;;;;11.20;9.05;;;;;;;;;;5013074;28;20046;-67
2023/09/28 00:17:24;;;;;;;11.43;8.55;;;;;;;;;;5014197;28;20070;-67
2023/09/28 00:19:50;;;;;;;12.02;9.07;;;;;;;;;;5017388;28;20104;-67
2023/09/28 00:22:16;;;;;;;11.40;9.30;;;;;;;;;;5012921;28;20053;-67
2023/09/28 00:24:42;;;;;;;11.02;9.23;;;;;;;;;;5016052;28;20057;-67
2023/09/28 00:27:09;;;;;;;9.15;8.25;;;;;;;;;;5015671;28;20496;-67
2023/09/28 00:29:35;;;;;;;10.85;8.50;;;;;;;;;;5014805;28;20042;-67
2023/09/28 00:32:01;;;;;;;10.73;8.07;;;;;;;;;;5018769;28;20069;-67
2023/09/28 00:34:26;;;;;;;9.45;8.02;;;;;;;;;;5014395;28;20084;-67
2023/09/28 00:36:52;;;;;;;9.80;8.35;;;;;;;;;;5014255;28;20488;-67
2023/09/28 00:39:18;;;;;;;9.85;7.63;;;;;;;;;;5013708;28;20128;-67
2023/09/28 00:41:46;;;;;;;11.27;7.95;;;;;;;;;;5016257;28;20034;-67
2023/09/28 00:44:11;;;;;;;9.73;7.97;;;;;;;;;;5019269;28;20050;-67
2023/09/28 00:46:38;;;;;;;8.85;7.90;;;;;;;;;;5012610;28;20099;-67
2023/09/28 00:49:05;;;;;;;8.23;7.40;;;;;;;;;;5014266;28;20048;-67
2023/09/28 00:51:33;;;;;;;9.85;8.02;;;;;;;;;;5012340;28;20046;-67
2023/09/28 00:54:00;;;;;;;9.50;7.25;;;;;;;;;;5014064;28;20042;-67
2023/09/28 00:56:27;;;;;;;8.70;7.47;;;;;;;;;;5015168;28;20045;-67
2023/09/28 00:58:54;;;;;;;8.85;7.30;;;;;;;;;;5010481;28;20038;-67
2023/09/28 01:01:20;;;;;;;9.30;8.15;;;;;;;;;;5013593;28;20113;-67
2023/09/28 01:03:46;;;;;;;11.43;7.60;;;;;;;;;;5012743;28;20124;-67
2023/09/28 01:06:12;;;;;;;10.35;7.22;;;;;;;;;;5013826;28;20045;-67
2023/09/28 01:08:38;;;;;;;9.75;6.82;;;;;;;;;;5012394;28;20046;-67
2023/09/28 01:11:07;;;;;;;8.52;7.35;;;;;;;;;;5013178;28;20096;-67
2023/09/28 01:13:33;;;;;;;8.07;6.85;;;;;;;;;;5012398;28;20076;-67
2023/09/28 01:15:59;;;;;;;9.70;7.55;;;;;;;;;;5015426;28;20050;-67
2023/09/28 01:18:25;;;;;;;8.95;6.57;;;;;;;;;;5011538;28;20042;-67
2023/09/28 01:20:51;;;;;;;7.53;6.80;;;;;;;;;;5012675;28;20488;-67
2023/09/28 01:23:18;;;;;;;10.63;7.47;;;;;;;;;;5012214;28;20045;-67
2023/09/28 01:25:49;;;;;;;9.98;6.72;;;;;;;;;;5013836;28;20227;-67
2023/09/28 01:28:18;;;;;;;8.98;6.80;;;;;;;;;;5013250;28;20045;-67
2023/09/28 01:30:44;;;;;;;10.60;6.72;;;;;;;;;;5012491;28;20045;-67
2023/09/28 01:33:10;;;;;;;8.25;6.65;;;;;;;;;;5014196;28;20140;-67
2023/09/28 01:35:36;;;;;;;10.63;7.32;;;;;;;;;;5013054;28;20112;-67
2023/09/28 01:38:11;;;;;;;9.23;7.03;;;;;;;;;;5012935;28;20255;-67
2023/09/28 01:40:37;;;;;;;7.65;6.30;;;;;;;;;;5011955;28;20510;-67
2023/09/28 01:43:03;;;;;;;8.48;7.03;;;;;;;;;;5012580;28;20121;-67
2023/09/28 01:45:29;;;;;;;9.75;7.20;;;;;;;;;;5012711;28;20416;-67
2023/09/28 01:47:55;;;;;;;12.73;7.20;;;;;;;;;;5012389;28;20045;-67
2023/09/28 01:50:21;;;;;;;10.65;6.95;;;;;;;;;;5012908;28;20104;-67
2023/09/28 01:52:47;;;;;;;12.95;7.00;;;;;;;;;;5011730;28;20075;-67
2023/09/28 01:55:14;;;;;;;9.98;7.22;;;;;;;;;;5011823;28;20081;-67
2023/09/28 01:57:40;;;;;;;8.80;6.90;;;;;;;;;;5010607;28;20057;-67
2023/09/28 02:00:20;;;;;;;9.30;7.60;;;;;;;;;;5012646;28;20491;-67
2023/09/28 02:02:51;;;;;;;8.68;7.00;;;;;;;;;;5011436;28;20056;-67
2023/09/28 02:05:18;;;;;;;8.27;6.88;;;;;;;;;;5007610;28;20042;-67
2023/09/28 02:07:44;;;;;;;10.48;7.47;;;;;;;;;;5009909;28;20480;-67
2023/09/28 02:10:11;;;;;;;8.45;7.07;;;;;;;;;;5012786;28;20042;-67
2023/09/28 02:12:39;;;;;;;8.32;7.30;;;;;;;;;;5012693;28;20048;-68
2023/09/28 02:15:15;;;;;;;9.27;7.53;;;;;;;;;;5012031;28;20049;-68
2023/09/28 02:17:42;;;;;;;8.93;7.35;;;;;;;;;;5074844;23;20501;-72
2023/09/28 02:20:09;;;;;;;9.35;7.25;;;;;;;;;;5071541;28;20040;-72
2023/09/28 02:22:43;;;;;;;10.30;7.32;;;;;;;;;;5052752;28;20500;-72
2023/09/28 02:25:10;;;;;;;10.50;7.20;;;;;;;;;;5071645;28;20045;-71
2023/09/28 02:27:36;;;;;;;10.05;7.18;;;;;;;;;;5070577;28;20049;-71
2023/09/28 02:30:04;;;;;;;10.68;7.32;;;;;;;;;;5048992;28;20103;-71
2023/09/28 02:32:30;;;;;;;12.88;7.15;;;;;;;;;;5068597;28;20051;-71
2023/09/28 02:34:56;;;;;;;11.27;7.13;;;;;;;;;;5069404;28;20079;-71
2023/09/28 02:37:22;;;;;;;9.85;7.38;;;;;;;;;;5070273;28;20478;-71
2023/09/28 02:39:48;;;;;;;9.13;7.60;;;;;;;;;;5070066;28;20067;-71
2023/09/28 02:42:14;;;;;;;15.82;8.35;;;;;;;;;;5064822;28;20487;-71
2023/09/28 02:44:40;;;;;;;11.65;7.95;;;;;;;;;;5065663;28;20060;-71
2023/09/28 02:47:09;;;;;;;11.88;7.38;;;;;;;;;;5060391;28;20033;-71
2023/09/28 02:49:35;;;;;;;10.70;8.10;;;;;;;;;;5071040;28;20045;-71
2023/09/28 02:52:03;;;;;;;11.07;8.30;;;;;;;;;;5070843;28;20047;-71
2023/09/28 02:54:30;;;;;;;10.70;7.95;;;;;;;;;;5060791;28;20044;-71
2023/09/28 02:56:56;;;;;;;10.32;7.78;;;;;;;;;;5068744;28;20044;-71
2023/09/28 02:59:22;;;;;;;8.60;7.28;;;;;;;;;;5050219;28;20052;-71
2023/09/28 03:01:49;;;;;;;8.88;7.00;;;;;;;;;;5071756;28;20033;-71
2023/09/28 03:04:16;;;;;;;8.68;7.43;;;;;;;;;;5071410;28;20068;-71
2023/09/28 03:06:42;;;;;;;9.65;7.45;;;;;;;;;;5052970;28;20044;-71
2023/09/28 03:09:09;;;;;;;9.77;7.40;;;;;;;;;;5052198;28;20425;-71
2023/09/28 03:11:35;;;;;;;10.93;7.68;;;;;;;;;;5050172;28;20048;-72
2023/09/28 03:14:03;;;;;;;10.18;7.10;;;;;;;;;;5064901;28;20144;-72
2023/09/28 03:16:29;;;;;;;8.80;7.13;;;;;;;;;;5069379;28;20040;-72
2023/09/28 03:18:57;;;;;;;7.97;6.63;;;;;;;;;;5071546;28;20110;-72
2023/09/28 03:21:23;;;;;;;9.45;7.03;;;;;;;;;;5046873;28;20123;-72
2023/09/28 03:23:49;;;;;;;10.43;6.50;;;;;;;;;;5052213;28;20040;-72
2023/09/28 03:26:16;;;;;;;9.55;6.78;;;;;;;;;;5064571;28;20831;-72
2023/09/28 03:28:42;;;;;;;11.48;6.93;;;;;;;;;;5065390;28;20409;-72
2023/09/28 03:31:08;;;;;;;8.10;6.82;;;;;;;;;;5065657;28;20186;-72
2023/09/28 03:33:33;;;;;;;9.10;6.60;;;;;;;;;;5069441;28;20483;-72
2023/09/28 03:35:59;;;;;;;7.70;6.43;;;;;;;;;;5065086;28;20049;-72
2023/09/28 03:38:25;;;;;;;8.80;6.72;;;;;;;;;;5059830;28;20040;-72
2023/09/28 03:40:51;;;;;;;7.53;6.10;;;;;;;;;;5059154;28;20119;-72
2023/09/28 03:43:17;;;;;;;7.15;6.07;;;;;;;;;;5053442;28;20101;-72
2023/09/28 03:45:43;;;;;;;9.38;6.20;;;;;;;;;;5070240;28;20029;-72
2023/09/28 03:48:09;;;;;;;8.00;6.35;;;;;;;;;;5048609;28;20067;-72
2023/09/28 03:50:35;;;;;;;8.60;6.53;;;;;;;;;;5052610;28;20486;-72
2023/09/28 03:53:01;;;;;;;8.00;6.50;;;;;;;;;;5051495;28;20059;-72
2023/09/28 03:55:27;;;;;;;8.30;6.13;;;;;;;;;;5063889;28;20044;-72
2023/09/28 03:57:53;;;;;;;8.27;6.05;;;;;;;;;;5045720;28;20135;-72
2023/09/28 04:00:20;;;;;;;9.05;6.45;;;;;;;;;;5068162;28;20518;-72
2023/09/28 04:02:47;;;;;;;10.65;6.50;;;;;;;;;;5056798;28;20067;-72
2023/09/28 04:05:13;;;;;;;10.32;6.30;;;;;;;;;;5068682;28;20076;-72
2023/09/28 04:07:40;;;;;;;9.85;5.68;;;;;;;;;;5054526;28;20126;-72
2023/09/28 04:10:06;;;;;;;7.13;5.93;;;;;;;;;;5064883;28;20056;-72
2023/09/28 04:12:33;;;;;;;8.57;6.47;;;;;;;;;;5069993;28;20049;-72
2023/09/28 04:14:59;;;;;;;7.90;5.93;;;;;;;;;;5066083;28;20045;-72
2023/09/28 04:17:25;;;;;;;8.50;5.88;;;;;;;;;;5041869;28;20044;-72
2023/09/28 04:19:51;;;;;;;10.82;6.80;;;;;;;;;;5066748;28;20437;-72
2023/09/28 04:22:17;;;;;;;10.38;6.20;;;;;;;;;;5060058;28;20398;-72
2023/09/28 04:24:43;;;;;;;9.50;6.78;;;;;;;;;;5056738;28;20029;-72
2023/09/28 04:27:09;;;;;;;10.85;6.93;;;;;;;;;;5049413;28;20032;-72
2023/09/28 04:29:35;;;;;;;8.07;7.00;;;;;;;;;;5050574;28;20044;-72
2023/09/28 04:32:01;;;;;;;12.32;6.90;;;;;;;;;;5069997;28;20041;-72
2023/09/28 04:34:29;;;;;;;9.10;6.68;;;;;;;;;;5069971;28;20090;-72
2023/09/28 04:36:55;;;;;;;9.32;6.75;;;;;;;;;;5069591;28;20044;-72
2023/09/28 04:39:24;;;;;;;8.23;6.88;;;;;;;;;;5070023;28;20095;-72
2023/09/28 04:41:53;;;;;;;9.50;6.63;;;;;;;;;;5069691;28;20059;-72
2023/09/28 04:44:19;;;;;;;9.85;6.40;;;;;;;;;;5056785;28;20052;-73
2023/09/28 04:46:46;;;;;;;11.43;6.57;;;;;;;;;;5066726;28;20115;-73
2023/09/28 04:49:12;;;;;;;10.27;7.53;;;;;;;;;;5063757;28;20040;-73
2023/09/28 04:51:38;;;;;;;13.05;7.13;;;;;;;;;;5051373;28;20059;-73
2023/09/28 04:54:05;;;;;;;10.18;6.97;;;;;;;;;;5052999;28;20494;-73
2023/09/28 04:56:32;;;;;;;9.13;6.72;;;;;;;;;;5073371;28;20036;-73
2023/09/28 04:58:59;;;;;;;8.80;6.95;;;;;;;;;;5058746;28;20411;-73
2023/09/28 05:01:25;;;;;;;9.68;7.65;;;;;;;;;;5067159;28;20111;-73
2023/09/28 05:03:51;;;;;;;9.27;6.72;;;;;;;;;;5064711;28;20035;-73
2023/09/28 05:06:17;;;;;;;10.77;7.07;;;;;;;;;;5048181;28;20116;-73
2023/09/28 05:08:43;;;;;;;9.68;7.05;;;;;;;;;;5072929;28;20040;-72
2023/09/28 05:11:09;;;;;;;11.73;7.63;;;;;;;;;;5072822;28;20049;-72
2023/09/28 05:13:35;;;;;;;10.82;6.97;;;;;;;;;;5069629;28;20131;-72
2023/09/28 05:16:02;;;;;;;10.48;8.15;;;;;;;;;;5040341;28;20964;-72
2023/09/28 05:18:29;;;;;;;10.05;7.32;;;;;;;;;;5051802;28;20562;-72
2023/09/28 05:20:55;;;;;;;10.45;7.28;;;;;;;;;;5072119;28;20480;-72
2023/09/28 05:23:21;;;;;;;10.63;7.60;;;;;;;;;;5073528;28;20041;-72
2023/09/28 05:25:47;;;;;;;11.93;7.30;;;;;;;;;;5063919;28;20054;-72
2023/09/28 05:28:14;;;;;;;13.10;8.15;;;;;;;;;;5072144;28;20090;-72
2023/09/28 05:30:40;;;;;;;10.02;7.50;;;;;;;;;;5072922;28;20067;-72
2023/09/28 05:33:06;;;;;;;9.73;7.10;;;;;;;;;;5073351;28;20080;-72
2023/09/28 05:35:32;;;;;;;10.60;7.53;;;;;;;;;;5066854;28;20486;-72
2023/09/28 05:37:58;;;;;;;10.90;8.30;;;;;;;;;;5064633;28;20055;-72
2023/09/28 05:40:25;;;;;;;11.05;7.30;;;;;;;;;;5066360;28;20041;-72
2023/09/28 05:42:51;;;;;;;10.52;7.35;;;;;;;;;;5072796;28;20033;-72
2023/09/28 05:45:17;;;;;;;9.18;6.80;;;;;;;;;;5070002;28;20371;-72
2023/09/28 05:47:43;;;;;;;10.90;7.10;;;;;;;;;;5073044;28;20436;-72
2023/09/28 05:50:09;;;;;;;9.10;6.82;;;;;;;;;;5053623;28;20048;-72
2023/09/28 05:52:35;;;;;;;11.15;7.13;;;;;;;;;;5055206;28;20401;-72
2023/09/28 05:55:01;;;;;;;8.30;6.32;;;;;;;;;;5072436;28;20047;-72
2023/09/28 05:57:28;;;;;;;8.85;7.00;;;;;;;;;;5071829;28;20060;-72
2023/09/28 05:59:54;;;;;;;12.10;7.43;;;;;;;;;;5071364;28;20037;-72
2023/09/28 06:02:20;;;;;;;11.13;7.00;;;;;;;;;;5069257;28;20047;-72
2023/09/28 06:04:46;;;;;;;16.25;6.97;;;;;;;;;;5067609;28;20041;-72
2023/09/28 06:07:12;;;;;;;10.85;6.80;;;;;;;;;;5064818;28;20044;-72
2023/09/28 06:09:39;;;;;;;8.07;6.40;;;;;;;;;;5045732;28;20040;-72
2023/09/28 06:12:05;;;;;;;11.13;6.88;;;;;;;;;;5066548;28;20059;-72
2023/09/28 06:14:32;;;;;;;10.40;6.32;;;;;;;;;;5064311;28;20032;-72
2023/09/28 06:16:59;;;;;;;8.90;6.53;;;;;;;;;;5069204;28;20051;-72
2023/09/28 06:19:25;;;;;;;10.02;6.45;;;;;;;;;;5070219;28;20107;-72
2023/09/28 06:21:52;;;;;;;11.55;6.63;;;;;;;;;;5071408;28;20041;-72
2023/09/28 06:24:18;;;;;;;11.05;6.15;;;;;;;;;;5069091;28;20082;-72
2023/09/28 06:26:44;;;;;;;11.85;6.07;;;;;;;;;;5069015;28;20037;-72
2023/09/28 06:29:11;;;;;;;10.93;6.82;;;;;;;;;;5072011;28;20123;-72
2023/09/28 06:31:37;;;;;;;11.10;6.22;;;;;;;;;;5068903;28;20117;-72
2023/09/28 06:34:03;;;;;;;9.52;6.07;;;;;;;;;;5072408;28;20048;-72
2023/09/28 06:36:29;;;;;;;10.57;6.22;;;;;;;;;;5071956;28;20044;-72
2023/09/28 06:38:56;;;;;;;11.80;6.20;;;;;;;;;;5066096;28;20083;-72
2023/09/28 06:41:22;;;;;;;14.88;6.07;;;;;;;;;;5071856;28;20541;-72
2023/09/28 06:43:48;;;;;;;14.18;5.18;;;;;;;;;;5069418;28;20815;-72
2023/09/28 06:46:14;;;;;;;13.70;5.15;;;;;;;;;;5063523;28;20033;-71
2023/09/28 06:48:41;;;;;;;16.25;5.45;;;;;;;;;;5065792;28;20028;-71
2023/09/28 06:51:07;;;;;;;10.13;4.78;;;;;;;;;;5065424;28;20068;-71
2023/09/28 06:53:33;;;;;;;12.40;5.35;;;;;;;;;;5058242;28;20061;-71
2023/09/28 06:56:01;;;;;;;17.38;5.20;;;;;;;;;;5065059;28;20036;-71
2023/09/28 06:58:27;;;;;;;19.27;5.20;;;;;;;;;;5041370;28;20437;-71
2023/09/28 07:00:53;;;;;;;12.10;5.15;;;;;;;;;;5064778;28;20033;-71
2023/09/28 07:03:20;;;;;;;15.32;4.32;;;;;;;;;;5070039;28;20392;-71
2023/09/28 07:05:46;;;;;;;14.75;4.60;;;;;;;;;;5063590;28;20064;-71
2023/09/28 07:08:12;;;;;;;12.73;4.30;;;;;;;;;;5069434;28;20300;-71
2023/09/28 07:10:39;;;;;;;17.33;5.10;;;;;;;;;;5065587;28;20102;-71
2023/09/28 07:13:06;;;;;;;11.70;4.05;;;;;;;;;;5067837;28;20044;-71
2023/09/28 07:15:33;;;;;;;19.20;4.82;;;;;;;;;;5067023;28;20508;-71
2023/09/28 07:18:03;;;;;;;12.32;4.20;;;;;;;;;;5069030;28;20044;-71
2023/09/28 07:20:29;;;;;;;15.88;4.40;;;;;;;;;;5070080;28;20060;-71
2023/09/28 07:22:55;;;;;;;17.48;3.80;;;;;;;;;;5063670;28;20040;-71
2023/09/28 07:25:21;;;;;;;17.58;4.22;;;;;;;;;;5070420;28;20174;-71
2023/09/28 07:27:52;;;;;;;12.65;4.32;;;;;;;;;;5068194;28;20475;-71
2023/09/28 07:30:19;;;;;;;;;;;;;;;;;;5070315;28;20048;-71
2023/09/28 07:32:46;;;;;;;18.98;4.22;;;;;;;;;;5068844;28;19962;-71
2023/09/28 07:35:12;;;;;;;15.63;4.53;;;;;;;;;;5071546;28;20060;-71
2023/09/28 07:37:38;;;;;;;19.33;4.10;;;;;;;;;;5067974;28;20375;-71
2023/09/28 07:40:06;;;;;;;16.98;4.35;;;;;;;;;;5069191;28;20379;-71
2023/09/28 07:42:32;;;;;;;18.48;3.90;;;;;;;;;;5064217;28;20072;-71
2023/09/28 07:44:58;;;;;;;15.77;4.18;;;;;;;;;;5063669;28;20114;-71
2023/09/28 07:47:24;;;;;;;18.48;4.78;;;;;;;;;;5062816;28;20466;-71
2023/09/28 07:49:52;;;;;;;19.23;5.15;;;;;;;;;;5062105;28;20040;-71
2023/09/28 07:52:18;;;;;;;17.33;4.70;;;;;;;;;;5071055;28;20040;-71
2023/09/28 07:54:44;;;;;;;13.80;4.47;;;;;;;;;;5068905;28;20025;-72
2023/09/28 07:57:11;;;;;;;19.92;4.97;;;;;;;;;;5070550;28;20078;-72
2023/09/28 07:59:37;;;;;;;16.58;4.90;;;;;;;;;;5052579;28;20120;-72
2023/09/28 08:02:09;;;;;;;17.67;4.88;;;;;;;;;;5070860;28;20036;-72
2023/09/28 08:04:36;;;;;;;14.77;3.65;;;;;;;;;;5063234;28;20062;-72
2023/09/28 08:07:03;;;;;;;16.33;4.32;;;;;;;;;;5064970;28;20041;-72
2023/09/28 08:09:29;;;;;;;16.85;4.93;;;;;;;;;;5069473;28;20040;-72
2023/09/28 08:11:55;;;;;;;15.77;5.10;;;;;;;;;;5067168;28;20127;-72
2023/09/28 08:14:21;;;;;;;15.45;4.38;;;;;;;;;;5061979;28;20041;-72
2023/09/28 08:16:48;;;;;;;22.90;5.20;;;;;;;;;;5123525;22;20128;-63
2023/09/28 08:19:14;;;;;;;19.27;4.88;;;;;;;;;;5049548;28;20248;-63
2023/09/28 08:21:40;;;;;;;14.63;4.65;;;;;;;;;;5045489;28;20524;-63
2023/09/28 08:24:07;;;;;;;18.23;3.85;;;;;;;;;;5047866;28;20626;-62
2023/09/28 08:26:34;;;;;;;15.20;3.97;;;;;;;;;;5044931;28;20040;-64
2023/09/28 08:29:00;;;;;;;18.20;3.90;;;;;;;;;;5050755;28;20044;-63
2023/09/28 08:31:29;;;;;;;20.55;5.07;;;;;;;;;;5052627;28;20043;-63
2023/09/28 08:33:56;;;;;;;21.10;4.22;;;;;;;;;;5048905;28;20041;-63
2023/09/28 08:36:22;;;;;;;20.60;4.75;;;;;;;;;;5048016;28;20044;-63
2023/09/28 08:38:49;;;;;;;16.67;3.95;;;;;;;;;;5051057;28;20083;-62
2023/09/28 08:41:19;;;;;;;19.08;4.38;;;;;;;;;;5033618;28;20442;-63
2023/09/28 08:43:50;;;;;;;18.42;3.95;;;;;;;;;;5044982;28;20041;-63
2023/09/28 08:46:17;;;;;;;27.40;4.43;;;;;;;;;;5051271;28;20037;-62
2023/09/28 08:48:45;;;;;;;20.85;4.78;;;;;;;;;;5052171;28;20048;-62
2023/09/28 08:51:12;;;;;;;17.95;3.92;;;;;;;;;;5050114;28;20572;-63
2023/09/28 08:53:38;;;;;;;19.50;4.15;;;;;;;;;;5050950;28;20418;-63
2023/09/28 08:56:05;;;;;;;20.55;4.50;;;;;;;;;;5051258;28;20045;-63
2023/09/28 08:58:34;;;;;;;18.42;3.97;;;;;;;;;;5052317;28;20037;-64
2023/09/28 09:01:01;;;;;;;17.48;4.63;;;;;;;;;;5047152;28;20036;-63
2023/09/28 09:03:28;;;;;;;21.02;4.45;;;;;;;;;;5032530;28;20120;-63
2023/09/28 09:05:54;;;;;;;17.23;3.70;;;;;;;;;;5049863;28;20040;-63
2023/09/28 09:08:22;;;;;;;13.63;4.10;;;;;;;;;;5052209;28;20032;-62
2023/09/28 09:10:49;;;;;;;17.88;5.00;;;;;;;;;;5047803;28;20085;-63
2023/09/28 09:13:16;;;;;;;20.92;4.35;;;;;;;;;;5049772;28;20449;-63
2023/09/28 09:15:43;;;;;;;14.38;4.13;;;;;;;;;;5053282;28;20174;-63
2023/09/28 09:18:16;;;;;;;20.05;4.78;;;;;;;;;;5033660;28;20037;-64
2023/09/28 09:20:42;;;;;;;19.88;4.20;;;;;;;;;;5048263;28;20114;-63
2023/09/28 09:23:11;;;;;;;18.55;4.93;;;;;;;;;;5052009;28;20476;-63
2023/09/28 09:25:41;;;;;;;22.58;4.13;;;;;;;;;;5047955;28;20606;-63
2023/09/28 09:28:07;;;;;;;21.00;3.95;;;;;;;;;;5032749;28;20118;-63
2023/09/28 09:30:37;;;;;;;16.48;3.83;;;;;;;;;;5050184;28;20056;-63
2023/09/28 09:33:04;;;;;;;17.40;4.37;;;;;;;;;;5046149;28;20051;-62
2023/09/28 09:35:31;;;;;;;21.17;4.47;;;;;;;;;;5049081;28;20295;-62
2023/09/28 09:37:57;;;;;;;21.65;4.57;;;;;;;;;;5043631;28;20056;-62
2023/09/28 09:40:23;;;;;;;20.33;4.90;;;;;;;;;;5045649;28;20045;-62
2023/09/28 09:42:49;;;;;;;18.60;4.32;;;;;;;;;;5046842;28;20120;-62
2023/09/28 09:45:15;;;;;;;20.75;4.65;;;;;;;;;;5049256;28;20036;-62
2023/09/28 09:47:46;;;;;;;26.20;4.25;;;;;;;;;;5052282;28;20040;-62
2023/09/28 09:50:14;;;;;;;23.85;4.20;;;;;;;;;;5047410;28;20151;-63
2023/09/28 09:52:41;;;;;;;19.25;4.70;;;;;;;;;;5052374;28;20045;-63
2023/09/28 09:55:08;;;;;;;25.23;4.45;;;;;;;;;;5048726;28;20042;-63
2023/09/28 09:57:37;;;;;;;17.13;3.92;;;;;;;;;;5048461;28;20045;-63
2023/09/28 10:00:06;;;;;;;26.33;3.80;;;;;;;;;;5049940;28;20041;-64
2023/09/28 10:02:35;;;;;;;25.80;4.18;;;;;;;;;;5050659;28;20049;-62
2023/09/28 10:05:02;;;;;;;20.00;3.85;;;;;;;;;;5046107;28;20037;-63
2023/09/28 10:07:32;;;;;;;27.85;4.47;;;;;;;;;;5048600;28;20106;-62
2023/09/28 10:09:58;;;;;;;23.13;4.05;;;;;;;;;;5044656;28;20451;-62
2023/09/28 10:12:25;;;;;;;19.75;3.97;;;;;;;;;;5047422;28;20037;-62
2023/09/28 10:14:52;;;;;;;17.90;3.80;;;;;;;;;;5052496;28;20056;-62
2023/09/28 10:17:18;;;;;;;21.13;4.72;;;;;;;;;;5051728;28;20037;-62
2023/09/28 10:19:45;;;;;;;21.70;4.55;;;;;;;;;;5052159;28;20041;-62
2023/09/28 10:22:12;;;;;;;19.38;3.97;;;;;;;;;;5052283;28;20060;-63
2023/09/28 10:24:38;;;;;;;19.65;3.55;;;;;;;;;;5051257;28;20086;-62
2023/09/28 10:27:09;;;;;;;15.93;2.90;;;;;;;;;;5050855;28;20028;-63
2023/09/28 10:29:36;;;;;;;20.13;3.72;;;;;;;;;;5047532;28;20041;-62
2023/09/28 10:32:07;;;;;;;17.90;3.60;;;;;;;;;;5051860;28;20500;-63
2023/09/28 10:34:32;;;;;;;;;;;;;;;;;;5042863;28;20447;-62
2023/09/28 10:37:18;;;;;;;22.58;3.88;;;;;;;;;;5046056;28;19925;-61
2023/09/28 10:39:48;;;;;;;18.30;3.92;;;;;;;;;;5050592;28;20071;-62
2023/09/28 10:42:16;;;;;;;20.50;3.73;;;;;;;;;;5050821;28;20036;-62
2023/09/28 10:44:46;;;;;;;23.02;3.85;;;;;;;;;;5050450;28;20072;-62
2023/09/28 10:47:12;;;;;;;20.85;3.85;;;;;;;;;;5051541;28;20044;-62
2023/09/28 10:49:39;;;;;;;15.65;4.07;;;;;;;;;;5050542;28;20052;-62
2023/09/28 10:52:08;;;;;;;17.00;3.28;;;;;;;;;;5050863;28;20041;-63
2023/09/28 10:54:34;;;;;;;17.85;3.40;;;;;;;;;;5051432;28;20583;-63
2023/09/28 10:57:03;;;;;;;16.60;3.60;;;;;;;;;;5051478;28;20137;-62
2023/09/28 10:59:29;;;;;;;19.33;4.07;;;;;;;;;;5051506;28;20114;-63
2023/09/28 11:01:55;;;;;;;19.63;3.38;;;;;;;;;;5049534;28;20080;-63
2023/09/28 11:04:22;;;;;;;22.40;3.55;;;;;;;;;;5048248;28;20024;-62
2023/09/28 11:06:49;;;;;;;15.25;3.70;;;;;;;;;;5046389;28;20485;-63
2023/09/28 11:09:19;;;;;;;17.20;3.42;;;;;;;;;;5048377;28;20130;-62
2023/09/28 11:11:45;;;;;;;14.00;3.17;;;;;;;;;;5050889;28;20048;-62
2023/09/28 11:14:11;;;;;;;16.33;3.35;;;;;;;;;;5048113;28;20284;-63
2023/09/28 11:16:41;;;;;;;14.27;3.00;;;;;;;;;;5046818;28;20054;-63
2023/09/28 11:19:11;;;;;;;16.33;3.20;;;;;;;;;;5049543;28;20076;-63
2023/09/28 11:21:38;;;;;;;13.85;3.03;;;;;;;;;;5051470;28;20037;-64
2023/09/28 11:24:04;;;;;;;15.20;3.50;;;;;;;;;;5031052;28;20037;-63
2023/09/28 11:26:31;;;;;;;19.85;3.30;;;;;;;;;;5043697;28;20038;-63
2023/09/28 11:28:58;;;;;;;15.30;3.13;;;;;;;;;;5049465;28;20076;-62
2023/09/28 11:31:25;;;;;;;18.20;3.40;;;;;;;;;;5047928;28;20055;-63
2023/09/28 11:33:51;;;;;;;22.13;3.50;;;;;;;;;;5050163;28;20040;-63
2023/09/28 11:36:18;;;;;;;14.77;3.55;;;;;;;;;;5048339;28;20091;-62
2023/09/28 11:38:46;;;;;;;17.27;4.20;;;;;;;;;;5032885;28;20052;-63
2023/09/28 11:41:13;;;;;;;16.30;3.35;;;;;;;;;;5046466;28;20544;-63
2023/09/28 11:43:52;;;;;;;17.75;3.03;;;;;;;;;;5049869;28;20041;-63
2023/09/28 11:46:19;;;;;;;19.02;4.20;;;;;;;;;;5046314;28;20037;-63
2023/09/28 11:48:45;;;;;;;18.25;3.00;;;;;;;;;;5050285;28;20041;-63
2023/09/28 11:51:12;;;;;;;16.42;3.33;;;;;;;;;;5050383;28;20037;-64
2023/09/28 11:53:41;;;;;;;14.80;3.28;;;;;;;;;;5050832;28;20509;-63
2023/09/28 11:56:07;;;;;;;21.92;3.20;;;;;;;;;;5038455;28;20489;-63
2023/09/28 11:58:34;;;;;;;13.60;3.13;;;;;;;;;;5046101;28;20034;-63
2023/09/28 12:01:00;;;;;;;19.52;3.85;;;;;;;;;;5048938;28;20056;-63
2023/09/28 12:03:27;;;;;;;21.05;4.72;;;;;;;;;;5049588;28;20037;-63
2023/09/28 12:05:54;;;;;;;14.73;3.28;;;;;;;;;;5054846;28;20064;-63
2023/09/28 12:08:21;;;;;;;23.05;3.90;;;;;;;;;;5054137;28;20072;-64
2023/09/28 12:10:47;;;;;;;18.25;3.60;;;;;;;;;;5053636;28;20105;-64
2023/09/28 12:13:13;;;;;;;18.35;4.13;;;;;;;;;;5054680;28;20523;-63
2023/09/28 12:15:39;;;;;;;17.63;4.20;;;;;;;;;;5054707;28;20037;-63
2023/09/28 12:18:05;;;;;;;13.98;3.65;;;;;;;;;;5053942;28;20523;-63
2023/09/28 12:20:31;;;;;;;18.88;3.97;;;;;;;;;;5054615;28;20041;-63
2023/09/28 12:22:58;;;;;;;20.42;4.00;;;;;;;;;;5053506;28;20047;-63
2023/09/28 12:25:24;;;;;;;18.13;3.72;;;;;;;;;;5053974;28;20044;-63
2023/09/28 12:27:50;;;;;;;17.75;3.95;;;;;;;;;;5049876;28;20039;-63
2023/09/28 12:30:21;;;;;;;16.98;3.78;;;;;;;;;;5050147;28;20052;-63
2023/09/28 12:32:47;;;;;;;;;;;;;;;;;;5049836;28;20052;-63
2023/09/28 12:35:13;;;;;;;16.42;4.05;;;;;;;;;;5053819;28;20304;-63
2023/09/28 12:37:39;;;;;;;18.35;4.07;;;;;;;;;;5049894;28;20497;-63
2023/09/28 12:40:11;;;;;;;22.25;4.13;;;;;;;;;;5054510;28;20099;-63
2023/09/28 12:42:38;;;;;;;18.00;3.45;;;;;;;;;;5049314;28;20077;-63
2023/09/28 12:45:04;;;;;;;14.88;3.47;;;;;;;;;;5052861;28;20048;-64
2023/09/28 12:47:31;;;;;;;15.15;3.17;;;;;;;;;;5049709;28;20532;-63
2023/09/28 12:49:59;;;;;;;19.70;4.00;;;;;;;;;;5048977;28;20052;-63
2023/09/28 12:52:25;;;;;;;16.98;3.58;;;;;;;;;;5051048;28;20381;-63
2023/09/28 12:54:51;;;;;;;13.25;3.50;;;;;;;;;;5053545;28;20091;-63
2023/09/28 12:57:18;;;;;;;21.25;3.90;;;;;;;;;;5048954;28;20045;-63
2023/09/28 12:59:46;;;;;;;16.95;3.45;;;;;;;;;;5052636;28;20450;-63
2023/09/28 13:02:12;;;;;;;14.80;3.63;;;;;;;;;;5049834;28;20500;-63
2023/09/28 13:04:38;;;;;;;18.20;3.30;;;;;;;;;;5053956;28;20520;-63
2023/09/28 13:07:04;;;;;;;16.38;3.10;;;;;;;;;;5035269;28;20124;-63
2023/09/28 13:09:32;;;;;;;14.07;3.30;;;;;;;;;;5053221;28;20481;-64
2023/09/28 13:11:58;;;;;;;17.40;3.17;;;;;;;;;;5051517;28;20497;-64
2023/09/28 13:14:27;;;;;;;15.93;3.17;;;;;;;;;;5052283;28;20037;-64
2023/09/28 13:16:57;;;;;;;13.95;3.75;;;;;;;;;;5053186;28;20037;-63
2023/09/28 13:19:26;;;;;;;17.05;3.20;;;;;;;;;;5049916;28;20386;-62
2023/09/28 13:21:53;;;;;;;16.92;3.50;;;;;;;;;;5049626;28;20037;-63
2023/09/28 13:24:21;;;;;;;15.93;3.20;;;;;;;;;;5045223;28;20071;-63
2023/09/28 13:26:47;;;;;;;16.35;3.20;;;;;;;;;;5051047;28;20051;-63
2023/09/28 13:29:13;;;;;;;15.60;3.83;;;;;;;;;;5053312;28;20036;-63
2023/09/28 13:31:43;;;;;;;20.05;3.78;;;;;;;;;;5035042;28;20072;-63
2023/09/28 13:34:10;;;;;;;17.00;3.85;;;;;;;;;;5049509;28;20114;-63
2023/09/28 13:36:36;;;;;;;19.27;4.18;;;;;;;;;;5048897;28;20045;-63
2023/09/28 13:39:04;;;;;;;18.95;4.15;;;;;;;;;;5033494;28;20091;-62
2023/09/28 13:41:31;;;;;;;18.75;3.50;;;;;;;;;;5053200;28;20037;-64
2023/09/28 13:43:58;;;;;;;16.42;3.45;;;;;;;;;;5035052;28;20045;-63
2023/09/28 13:46:24;;;;;;;15.40;3.22;;;;;;;;;;5053224;28;20374;-63
2023/09/28 13:48:51;;;;;;;20.45;4.68;;;;;;;;;;5044708;28;20029;-64
2023/09/28 13:51:18;;;;;;;16.20;4.20;;;;;;;;;;5034751;28;20095;-63
2023/09/28 13:53:44;;;;;;;18.55;3.17;;;;;;;;;;5051935;28;20120;-63
2023/09/28 13:56:10;;;;;;;17.20;3.90;;;;;;;;;;5048813;28;20040;-63
2023/09/28 13:58:38;;;;;;;17.17;3.97;;;;;;;;;;5052549;28;20039;-63
2023/09/28 14:01:10;;;;;;;17.88;4.40;;;;;;;;;;5033757;28;20048;-63
2023/09/28 14:03:37;;;;;;;19.10;4.32;;;;;;;;;;5048495;28;20033;-63
2023/09/28 14:06:05;;;;;;;15.80;4.03;;;;;;;;;;5051640;28;20041;-63
2023/09/28 14:08:31;;;;;;;19.85;4.18;;;;;;;;;;5047939;28;20174;-63
2023/09/28 14:10:57;;;;;;;16.77;3.47;;;;;;;;;;5050281;28;20041;-63
2023/09/28 14:13:24;;;;;;;15.43;3.08;;;;;;;;;;5048676;28;20041;-63
2023/09/28 14:15:50;;;;;;;19.88;4.10;;;;;;;;;;5070993;22;20456;-69
2023/09/28 14:18:16;;;;;;;16.65;3.92;;;;;;;;;;5030882;28;20049;-70
2023/09/28 14:20:42;;;;;;;15.93;3.25;;;;;;;;;;5033106;28;20119;-71
2023/09/28 14:23:08;;;;;;;15.95;3.92;;;;;;;;;;5052225;28;20039;-72
2023/09/28 14:25:34;;;;;;;14.55;3.47;;;;;;;;;;5049524;28;20033;-72
2023/09/28 14:28:00;;;;;;;17.35;3.92;;;;;;;;;;5025805;28;20040;-71
2023/09/28 14:30:27;;;;;;;17.55;3.70;;;;;;;;;;5033618;28;20052;-71
2023/09/28 14:32:53;;;;;;;16.38;4.18;;;;;;;;;;5034286;28;20051;-72